QTR909 YSSY-OTHH
Flight info
| Callsign | QTR909 |
|---|---|
| Flight time | N/A |
| Altitude | 34000 |
| Route | TESAT A576 PKS J141 LEC T21 PD N509 MUTMI/N0502F360 N509 ELATI N640 HAMBA/N0493F380 N640 KAT P570 EMURU N563 SODEX/N0510F340 N563 UMIBU P899 TOVOX |
| Aircraft | A35K/H-SDE2E3GHIJ3J4J5LM1ORWXY/LB1D1 |
Departure
| Time | 2026-05-06 14:01 |
|---|---|
| Airport | Sydney Kingsford Smith International Airport (YSSY) |
Arrival
| Time | N/A |
|---|---|
| Airport | Hamad International Airport (OTHH) |
| Time | Latitude | Longitude | Altitude | Speed | Heading |
|---|---|---|---|---|---|
| 2026-05-06 13:43 | -33.93894 | 151.16858 | 27 ft | 0 kts | 70° |
| 2026-05-06 13:52 | -33.93898 | 151.16845 | 27 ft | 3 kts | 70° |
| 2026-05-06 13:52 | -33.93904 | 151.16825 | 26 ft | 3 kts | 70° |
| 2026-05-06 13:52 | -33.93911 | 151.16805 | 24 ft | 3 kts | 76° |
| 2026-05-06 13:53 | -33.93912 | 151.16782 | 26 ft | 3 kts | 115° |
| 2026-05-06 13:53 | -33.93900 | 151.16763 | 27 ft | 3 kts | 155° |
| 2026-05-06 13:53 | -33.93895 | 151.16759 | 26 ft | 0 kts | 168° |
| 2026-05-06 13:55 | -33.93897 | 151.16760 | 27 ft | 0 kts | 166° |
| 2026-05-06 13:55 | -33.93993 | 151.16792 | 27 ft | 21 kts | 165° |
| 2026-05-06 13:56 | -33.94138 | 151.16838 | 29 ft | 21 kts | 168° |
| 2026-05-06 13:56 | -33.94280 | 151.16877 | 29 ft | 20 kts | 167° |
| 2026-05-06 13:56 | -33.94390 | 151.16936 | 29 ft | 17 kts | 118° |
| 2026-05-06 13:56 | -33.94388 | 151.17059 | 30 ft | 13 kts | 79° |
| 2026-05-06 13:57 | -33.94365 | 151.17162 | 31 ft | 12 kts | 73° |
| 2026-05-06 13:57 | -33.94348 | 151.17265 | 31 ft | 13 kts | 96° |
| 2026-05-06 13:57 | -33.94412 | 151.17336 | 32 ft | 14 kts | 167° |
| 2026-05-06 13:57 | -33.94534 | 151.17371 | 32 ft | 25 kts | 167° |
| 2026-05-06 13:58 | -33.94729 | 151.17422 | 31 ft | 32 kts | 168° |
| 2026-05-06 13:58 | -33.94971 | 151.17485 | 31 ft | 39 kts | 167° |
| 2026-05-06 13:58 | -33.95258 | 151.17560 | 26 ft | 44 kts | 168° |
| 2026-05-06 13:58 | -33.95561 | 151.17637 | 27 ft | 45 kts | 169° |
| 2026-05-06 13:59 | -33.95855 | 151.17713 | 29 ft | 42 kts | 167° |
| 2026-05-06 13:59 | -33.96136 | 151.17786 | 30 ft | 40 kts | 167° |
| 2026-05-06 13:59 | -33.96377 | 151.17850 | 29 ft | 32 kts | 159° |
| 2026-05-06 13:59 | -33.96430 | 151.17924 | 30 ft | 0 kts | 100° |
| 2026-05-06 14:00 | -33.96432 | 151.17972 | 30 ft | 14 kts | 86° |
| 2026-05-06 14:00 | -33.96384 | 151.18045 | 30 ft | 13 kts | 13° |
| 2026-05-06 14:00 | -33.96284 | 151.18027 | 29 ft | 19 kts | 348° |
| 2026-05-06 14:00 | -33.95915 | 151.17932 | 28 ft | 90 kts | 348° |
| 2026-05-06 14:01 | -33.95082 | 151.17716 | 28 ft | 153 kts | 347° |
| 2026-05-06 14:01 | -33.93925 | 151.17395 | 431 ft | 171 kts | 346° |
| 2026-05-06 14:01 | -33.92854 | 151.17019 | 1523 ft | 150 kts | 339° |
| 2026-05-06 14:01 | -33.91798 | 151.16676 | 2117 ft | 163 kts | 343° |
| 2026-05-06 14:02 | -33.90630 | 151.16474 | 2735 ft | 176 kts | 357° |
| 2026-05-06 14:02 | -33.89385 | 151.16730 | 3365 ft | 186 kts | 6° |
| 2026-05-06 14:02 | -33.88164 | 151.16446 | 3974 ft | 181 kts | 322° |
| 2026-05-06 14:02 | -33.87408 | 151.15218 | 4572 ft | 188 kts | 290° |
| 2026-05-06 14:03 | -33.87042 | 151.13715 | 5310 ft | 180 kts | 283° |
| 2026-05-06 14:03 | -33.86822 | 151.12302 | 5847 ft | 174 kts | 281° |
| 2026-05-06 14:03 | -33.86628 | 151.10842 | 5843 ft | 192 kts | 280° |
| 2026-05-06 14:03 | -33.86398 | 151.09207 | 6076 ft | 206 kts | 281° |
| 2026-05-06 14:04 | -33.86119 | 151.07450 | 6445 ft | 227 kts | 282° |
| 2026-05-06 14:04 | -33.85780 | 151.05524 | 6928 ft | 245 kts | 283° |
| 2026-05-06 14:04 | -33.85409 | 151.03539 | 7585 ft | 252 kts | 283° |
| 2026-05-06 14:04 | -33.85012 | 151.01473 | 8347 ft | 256 kts | 283° |
| 2026-05-06 14:05 | -33.84874 | 151.00763 | 8535 ft | 258 kts | 283° |